createdAt,value
2022-10-07T00:02:24.697Z,8.39
2022-10-07T00:04:51.391Z,8.36
2022-10-07T00:07:18.055Z,8.35
2022-10-07T00:09:44.962Z,8.31
2022-10-07T00:12:11.622Z,8.28
2022-10-07T00:14:39.544Z,8.25
2022-10-07T00:17:06.206Z,8.23
2022-10-07T00:19:33.570Z,8.20
2022-10-07T00:22:00.406Z,8.17
2022-10-07T00:24:27.050Z,8.15
2022-10-07T00:26:53.719Z,8.14
2022-10-07T00:29:23.182Z,8.11
2022-10-07T00:31:56.906Z,8.10
2022-10-07T00:34:24.773Z,8.08
2022-10-07T00:36:51.542Z,8.05
2022-10-07T00:39:18.466Z,8.02
2022-10-07T00:41:55.444Z,7.99
2022-10-07T00:44:29.728Z,7.97
2022-10-07T00:46:57.283Z,7.94
2022-10-07T00:49:23.862Z,7.92
2022-10-07T00:51:52.587Z,7.89
2022-10-07T00:54:20.840Z,7.87
2022-10-07T00:56:50.008Z,7.85
2022-10-07T00:59:18.310Z,7.82
2022-10-07T01:01:46.324Z,7.80
2022-10-07T01:04:14.928Z,7.77
2022-10-07T01:06:41.671Z,7.77
2022-10-07T01:09:10.688Z,7.76
2022-10-07T01:11:48.277Z,7.74
2022-10-07T01:14:34.461Z,7.71
2022-10-07T01:17:23.101Z,7.68
2022-10-07T01:20:16.587Z,7.66
2022-10-07T01:23:22.298Z,7.65
2022-10-07T01:26:14.725Z,7.63
2022-10-07T01:28:49.948Z,7.61
2022-10-07T01:31:21.755Z,7.60
2022-10-07T01:33:52.983Z,7.58
2022-10-07T01:36:24.892Z,7.57
2022-10-07T01:38:56.720Z,7.55
2022-10-07T01:41:24.314Z,7.53
2022-10-07T01:43:53.807Z,7.51
2022-10-07T01:46:25.778Z,7.50
2022-10-07T01:48:55.013Z,7.47
2022-10-07T01:51:25.538Z,7.45
2022-10-07T01:54:17.965Z,7.44
2022-10-07T01:57:06.815Z,7.42
2022-10-07T01:59:53.816Z,7.40
2022-10-07T02:02:26.434Z,7.38
2022-10-07T02:05:17.083Z,7.35
2022-10-07T02:07:47.851Z,7.33
2022-10-07T02:10:26.475Z,7.32
2022-10-07T02:13:12.344Z,7.29
2022-10-07T02:15:54.081Z,7.29
2022-10-07T02:18:20.982Z,7.27
2022-10-07T02:20:51.934Z,7.27
2022-10-07T02:23:23.648Z,7.25
2022-10-07T02:25:51.861Z,7.23
2022-10-07T02:28:22.731Z,7.22
2022-10-07T02:30:55.877Z,7.22
2022-10-07T02:33:28.008Z,7.20
2022-10-07T02:35:59.821Z,7.20
2022-10-07T02:38:26.820Z,7.19
2022-10-07T02:41:06.191Z,7.18
2022-10-07T02:43:41.984Z,7.18
2022-10-07T02:46:22.566Z,7.17
2022-10-07T02:48:58.808Z,7.15
2022-10-07T02:51:29.672Z,7.16
2022-10-07T02:53:57.735Z,7.15
2022-10-07T02:56:26.613Z,7.14
2022-10-07T02:58:54.042Z,7.15
2022-10-07T03:01:26.609Z,7.13
2022-10-07T03:03:53.303Z,7.13
2022-10-07T03:06:20.455Z,7.12
2022-10-07T03:08:48.137Z,7.12
2022-10-07T03:11:14.844Z,7.12
2022-10-07T03:13:41.663Z,7.11
2022-10-07T03:16:08.274Z,7.10
2022-10-07T03:18:34.880Z,7.09
2022-10-07T03:21:08.718Z,7.07
2022-10-07T03:23:35.602Z,7.06
2022-10-07T03:26:02.384Z,7.06
2022-10-07T03:28:31.528Z,7.07
2022-10-07T03:31:10.144Z,7.05
2022-10-07T03:33:40.292Z,7.03
2022-10-07T03:36:09.099Z,7.02
2022-10-07T03:38:37.436Z,7.00
2022-10-07T03:41:07.393Z,7.00
2022-10-07T03:43:34.433Z,6.98
2022-10-07T03:46:04.040Z,6.98
2022-10-07T03:48:33.002Z,6.96
2022-10-07T03:51:01.400Z,6.95
2022-10-07T03:53:30.233Z,6.94
2022-10-07T03:55:59.248Z,6.93
2022-10-07T03:58:26.007Z,6.93
2022-10-07T04:00:52.632Z,6.91
2022-10-07T04:03:19.447Z,6.91
2022-10-07T04:05:59.624Z,6.89
2022-10-07T04:08:29.204Z,6.91
2022-10-07T04:10:57.279Z,6.90
2022-10-07T04:13:24.184Z,6.90
2022-10-07T04:15:53.024Z,6.90
2022-10-07T04:18:21.111Z,6.90
2022-10-07T04:20:48.008Z,6.89
2022-10-07T04:23:15.539Z,6.89
2022-10-07T04:25:46.803Z,6.89
2022-10-07T04:28:24.165Z,6.87
2022-10-07T04:30:55.820Z,6.89
2022-10-07T04:33:29.975Z,6.89
2022-10-07T04:35:57.260Z,6.90
2022-10-07T04:38:28.147Z,6.90
2022-10-07T04:40:56.469Z,6.89
2022-10-07T04:43:23.600Z,6.91
2022-10-07T04:46:05.699Z,6.91
2022-10-07T04:48:34.793Z,6.92
2022-10-07T04:51:06.071Z,6.92
2022-10-07T04:53:33.578Z,6.93
2022-10-07T04:56:00.532Z,6.93
2022-10-07T04:58:29.259Z,6.94
2022-10-07T05:00:57.211Z,6.94
2022-10-07T05:03:27.005Z,6.95
2022-10-07T05:05:56.234Z,6.95
2022-10-07T05:08:24.974Z,6.95
2022-10-07T05:10:57.281Z,6.95
2022-10-07T05:13:26.458Z,6.97
2022-10-07T05:15:59.231Z,6.98
2022-10-07T05:18:27.491Z,6.99
2022-10-07T05:20:56.906Z,6.99
2022-10-07T05:23:28.535Z,7.01
2022-10-07T05:26:04.827Z,7.02
2022-10-07T05:28:33.655Z,7.03
2022-10-07T05:31:01.898Z,7.04
2022-10-07T05:33:31.689Z,7.04
2022-10-07T05:35:59.252Z,7.06
2022-10-07T05:38:26.862Z,7.09
2022-10-07T05:41:05.077Z,7.11
2022-10-07T05:43:38.489Z,7.12
2022-10-07T05:46:11.003Z,7.15
2022-10-07T05:48:41.327Z,7.16
2022-10-07T05:51:08.886Z,7.19
2022-10-07T05:53:35.500Z,7.21
2022-10-07T05:56:12.623Z,7.23
2022-10-07T05:58:39.413Z,7.27
2022-10-07T06:01:14.497Z,7.31
2022-10-07T06:03:43.960Z,7.34
2022-10-07T06:06:11.315Z,7.37
2022-10-07T06:08:37.997Z,7.40
2022-10-07T06:11:24.561Z,7.43
2022-10-07T06:13:53.705Z,7.47
2022-10-07T06:16:21.363Z,7.51
2022-10-07T06:18:50.555Z,7.55
2022-10-07T06:21:19.509Z,7.59
2022-10-07T06:23:53.162Z,7.64
2022-10-07T06:26:23.863Z,7.70
2022-10-07T06:28:51.319Z,7.75
2022-10-07T06:31:25.206Z,7.79
2022-10-07T06:33:57.030Z,7.84
2022-10-07T06:36:23.685Z,7.92
2022-10-07T06:38:55.153Z,7.97
2022-10-07T06:41:26.602Z,8.01
2022-10-07T06:44:05.436Z,8.07
2022-10-07T06:46:32.018Z,8.14
2022-10-07T06:48:59.047Z,8.19
2022-10-07T06:51:25.890Z,8.26
2022-10-07T06:53:57.856Z,8.34
2022-10-07T06:56:25.827Z,8.40
2022-10-07T06:58:52.606Z,8.47
2022-10-07T07:01:28.035Z,8.53
2022-10-07T07:03:56.036Z,8.59
2022-10-07T07:06:23.646Z,8.65
2022-10-07T07:08:50.459Z,8.72
2022-10-07T07:11:37.154Z,8.78
2022-10-07T07:14:12.274Z,8.86
2022-10-07T07:16:42.220Z,8.93
2022-10-07T07:19:12.121Z,8.99
2022-10-07T07:21:40.944Z,9.05
2022-10-07T07:24:10.325Z,9.13
2022-10-07T07:26:39.416Z,9.23
2022-10-07T07:29:07.999Z,9.31
2022-10-07T07:31:42.607Z,9.40
2022-10-07T07:34:12.011Z,9.48
2022-10-07T07:36:44.759Z,9.53
2022-10-07T07:39:15.040Z,9.62
2022-10-07T07:41:46.782Z,9.68
2022-10-07T07:44:17.996Z,9.75
2022-10-07T07:46:52.152Z,9.82
2022-10-07T07:49:21.503Z,9.87
2022-10-07T07:51:49.271Z,9.93
2022-10-07T07:54:22.836Z,10.01
2022-10-07T07:56:51.732Z,10.08
2022-10-07T07:59:20.946Z,10.13
2022-10-07T08:01:49.541Z,10.19
2022-10-07T08:04:17.109Z,10.28
2022-10-07T08:06:44.658Z,10.35
2022-10-07T08:09:12.856Z,10.42
2022-10-07T08:11:45.703Z,10.50
2022-10-07T08:14:17.352Z,10.59
2022-10-07T08:16:46.051Z,10.67
2022-10-07T08:19:13.146Z,10.77
2022-10-07T08:21:39.719Z,10.89
2022-10-07T08:24:12.335Z,10.98
2022-10-07T08:26:39.725Z,11.07
2022-10-07T08:29:09.081Z,11.14
2022-10-07T08:31:35.932Z,11.22
2022-10-07T08:34:04.261Z,11.27
2022-10-07T08:36:33.140Z,11.33
2022-10-07T08:39:01.568Z,11.37
2022-10-07T08:41:36.231Z,11.42
2022-10-07T08:44:18.112Z,11.52
2022-10-07T08:47:09.674Z,11.57
2022-10-07T08:50:02.774Z,11.65
2022-10-07T08:52:29.257Z,11.76
2022-10-07T08:54:55.786Z,11.84
2022-10-07T08:57:31.192Z,11.93
2022-10-07T09:00:03.739Z,11.99
2022-10-07T09:02:56.417Z,12.04
2022-10-07T09:05:28.153Z,12.09
2022-10-07T09:07:59.268Z,12.16
2022-10-07T09:10:28.495Z,12.28
2022-10-07T09:13:00.411Z,12.35
2022-10-07T09:15:34.226Z,12.42
2022-10-07T09:18:41.005Z,12.51
2022-10-07T09:21:32.924Z,12.58
2022-10-07T09:24:24.475Z,12.64
2022-10-07T09:26:57.198Z,12.73
2022-10-07T09:29:26.601Z,12.78
2022-10-07T09:31:54.121Z,12.87
2022-10-07T09:34:24.152Z,12.94
2022-10-07T09:37:13.873Z,13.07
2022-10-07T09:39:42.272Z,13.19
2022-10-07T09:42:23.450Z,13.27
2022-10-07T09:44:55.344Z,13.36
2022-10-07T09:47:25.061Z,13.52
2022-10-07T09:49:56.738Z,13.61
2022-10-07T09:52:25.382Z,13.66
2022-10-07T09:54:54.137Z,13.74
2022-10-07T09:57:32.971Z,13.85
2022-10-07T10:00:24.443Z,13.96
2022-10-07T10:03:07.688Z,14.05
2022-10-07T10:06:05.195Z,14.15
2022-10-07T10:08:35.722Z,14.23
2022-10-07T10:11:29.507Z,14.30
2022-10-07T10:13:56.724Z,14.38
2022-10-07T10:16:26.127Z,14.43
2022-10-07T10:19:21.658Z,14.53
2022-10-07T10:21:59.101Z,14.64
2022-10-07T10:24:48.757Z,14.73
2022-10-07T10:27:26.163Z,14.78
2022-10-07T10:30:05.763Z,14.91
2022-10-07T10:32:51.174Z,15.02
2022-10-07T10:35:34.545Z,15.12
2022-10-07T10:38:23.371Z,15.19
2022-10-07T10:41:03.671Z,15.26
2022-10-07T10:43:30.133Z,15.33
2022-10-07T10:46:25.651Z,15.39
2022-10-07T10:49:19.717Z,15.47
2022-10-07T10:52:18.759Z,15.54
2022-10-07T10:55:04.235Z,15.64
2022-10-07T10:58:07.723Z,15.75
2022-10-07T11:00:48.642Z,15.86
2022-10-07T11:03:49.352Z,15.92
2022-10-07T11:06:18.167Z,15.97
2022-10-07T11:08:47.399Z,15.98
2022-10-07T11:11:19.077Z,15.96
2022-10-07T11:13:57.728Z,15.94
2022-10-07T11:16:45.003Z,15.94
2022-10-07T11:19:30.912Z,15.93
2022-10-07T11:21:59.981Z,15.90
2022-10-07T11:24:33.530Z,15.90
2022-10-07T11:27:20.331Z,15.92
2022-10-07T11:30:16.642Z,15.94
2022-10-07T11:32:49.350Z,15.94
2022-10-07T11:35:34.773Z,15.96
2022-10-07T11:38:10.563Z,15.99
2022-10-07T11:41:03.280Z,16.04
2022-10-07T11:43:35.170Z,16.05
2022-10-07T11:46:14.556Z,16.03
2022-10-07T11:49:06.276Z,16.08
2022-10-07T11:51:38.420Z,16.09
2022-10-07T11:54:08.056Z,16.11
2022-10-07T11:56:44.377Z,16.15
2022-10-07T11:59:29.925Z,16.19
2022-10-07T12:01:56.602Z,16.24
2022-10-07T12:04:29.192Z,16.27
2022-10-07T12:07:33.461Z,16.29
2022-10-07T12:10:06.810Z,16.36
2022-10-07T12:12:47.648Z,16.39
2022-10-07T12:15:31.699Z,16.44
2022-10-07T12:18:07.052Z,16.48
2022-10-07T12:20:46.307Z,16.50
2022-10-07T12:23:18.949Z,16.52
2022-10-07T12:25:51.511Z,16.55
2022-10-07T12:28:45.919Z,16.58
2022-10-07T12:31:12.534Z,16.59
2022-10-07T12:34:06.218Z,16.59
2022-10-07T12:36:33.058Z,16.58
2022-10-07T12:39:02.603Z,16.57
2022-10-07T12:41:30.347Z,16.56
2022-10-07T12:44:38.542Z,16.58
2022-10-07T12:47:18.531Z,16.59
2022-10-07T12:49:51.379Z,16.62
2022-10-07T12:52:40.430Z,16.65
2022-10-07T12:55:10.929Z,16.69
2022-10-07T12:57:40.971Z,16.69
2022-10-07T13:00:13.485Z,16.72
2022-10-07T13:03:30.420Z,16.73
2022-10-07T13:06:29.562Z,16.78
2022-10-07T13:09:30.262Z,16.77
2022-10-07T13:12:15.726Z,16.78
2022-10-07T13:14:55.490Z,16.80
2022-10-07T13:17:46.286Z,16.84
2022-10-07T13:20:27.128Z,16.85
2022-10-07T13:22:54.315Z,16.85
2022-10-07T13:25:21.675Z,16.88
2022-10-07T13:28:00.198Z,16.92
2022-10-07T13:30:40.928Z,16.94
2022-10-07T13:33:17.059Z,16.97
2022-10-07T13:35:43.614Z,16.97
2022-10-07T13:38:28.375Z,16.98
2022-10-07T13:41:04.800Z,17.00
2022-10-07T13:43:33.286Z,17.00
2022-10-07T13:46:02.001Z,16.99
2022-10-07T13:48:35.442Z,17.01
2022-10-07T13:51:02.904Z,17.03
2022-10-07T13:53:32.168Z,17.03
2022-10-07T13:56:17.188Z,17.03
2022-10-07T13:58:44.332Z,17.03
2022-10-07T14:01:12.603Z,17.03
2022-10-07T14:04:09.704Z,17.02
2022-10-07T14:06:57.522Z,17.03
2022-10-07T14:09:33.012Z,17.05
2022-10-07T14:12:13.109Z,17.07
2022-10-07T14:14:42.598Z,17.08
2022-10-07T14:17:19.336Z,17.11
2022-10-07T14:19:52.942Z,17.11
2022-10-07T14:22:28.298Z,17.12
2022-10-07T14:24:58.358Z,17.12
2022-10-07T14:27:47.062Z,17.11
2022-10-07T14:30:56.437Z,17.10
2022-10-07T14:34:03.289Z,17.09
2022-10-07T14:36:29.947Z,17.08
2022-10-07T14:38:59.755Z,17.06
2022-10-07T14:41:29.098Z,17.04
2022-10-07T14:43:59.925Z,17.02
2022-10-07T14:46:28.353Z,17.03
2022-10-07T14:48:55.131Z,17.05
2022-10-07T14:51:26.867Z,17.05
2022-10-07T14:53:56.380Z,17.05
2022-10-07T14:56:27.133Z,17.04
2022-10-07T14:58:54.900Z,17.04
2022-10-07T15:01:21.400Z,17.00
2022-10-07T15:03:51.318Z,16.98
2022-10-07T15:06:18.894Z,16.98
2022-10-07T15:08:46.749Z,16.95
2022-10-07T15:11:18.723Z,16.94
2022-10-07T15:13:49.823Z,16.91
2022-10-07T15:16:19.545Z,16.87
2022-10-07T15:18:51.837Z,16.87
2022-10-07T15:21:19.920Z,16.87
2022-10-07T15:23:53.960Z,16.84
2022-10-07T15:26:23.985Z,16.83
2022-10-07T15:28:56.503Z,16.84
2022-10-07T15:31:26.556Z,16.82
2022-10-07T15:33:57.093Z,16.81
2022-10-07T15:36:25.875Z,16.79
2022-10-07T15:38:52.651Z,16.78
2022-10-07T15:41:42.921Z,16.75
2022-10-07T15:44:19.053Z,16.71
2022-10-07T15:46:48.336Z,16.64
2022-10-07T15:49:19.425Z,16.58
2022-10-07T15:51:46.760Z,16.52
2022-10-07T15:54:13.597Z,16.44
2022-10-07T15:56:40.512Z,16.37
2022-10-07T15:59:07.034Z,16.29
2022-10-07T16:01:33.690Z,16.25
2022-10-07T16:04:02.452Z,16.20
2022-10-07T16:06:34.840Z,16.13
2022-10-07T16:09:02.120Z,16.06
2022-10-07T16:11:30.142Z,16.02
2022-10-07T16:13:59.272Z,15.96
2022-10-07T16:16:27.338Z,15.90
2022-10-07T16:18:56.954Z,15.84
2022-10-07T16:21:27.959Z,15.76
2022-10-07T16:24:03.674Z,15.67
2022-10-07T16:26:31.308Z,15.61
2022-10-07T16:29:18.620Z,15.55
2022-10-07T16:31:46.482Z,15.47
2022-10-07T16:34:15.655Z,15.40
2022-10-07T16:36:45.672Z,15.33
2022-10-07T16:39:13.444Z,15.23
2022-10-07T16:41:42.962Z,15.14
2022-10-07T16:44:09.875Z,15.06
2022-10-07T16:46:36.791Z,14.97
2022-10-07T16:49:08.475Z,14.88
2022-10-07T16:51:37.367Z,14.79
2022-10-07T16:54:13.072Z,14.71
2022-10-07T16:56:47.091Z,14.62
2022-10-07T16:59:22.069Z,14.54
2022-10-07T17:01:51.491Z,14.45
2022-10-07T17:04:18.389Z,14.37
2022-10-07T17:06:46.317Z,14.30
2022-10-07T17:09:14.069Z,14.22
2022-10-07T17:11:41.218Z,14.13
2022-10-07T17:14:16.702Z,14.07
2022-10-07T17:16:52.727Z,13.99
2022-10-07T17:19:22.001Z,13.92
2022-10-07T17:21:49.909Z,13.85
2022-10-07T17:24:18.121Z,13.76
2022-10-07T17:26:45.937Z,13.71
2022-10-07T17:29:16.436Z,13.62
2022-10-07T17:31:44.356Z,13.56
2022-10-07T17:34:11.920Z,13.49
2022-10-07T17:36:39.435Z,13.42
2022-10-07T17:39:06.746Z,13.35
2022-10-07T17:41:35.448Z,13.31
2022-10-07T17:44:05.952Z,13.27
2022-10-07T17:46:33.282Z,13.21
2022-10-07T17:49:02.153Z,13.15
2022-10-07T17:51:31.818Z,13.07
2022-10-07T17:54:02.812Z,13.02
2022-10-07T17:56:31.842Z,12.95
2022-10-07T17:58:58.870Z,12.89
2022-10-07T18:01:28.243Z,12.82
2022-10-07T18:03:57.527Z,12.77
2022-10-07T18:06:29.010Z,12.72
2022-10-07T18:08:56.261Z,12.66
2022-10-07T18:11:22.910Z,12.61
2022-10-07T18:14:07.869Z,12.56
2022-10-07T18:16:35.533Z,12.50
2022-10-07T18:19:02.814Z,12.43
2022-10-07T18:21:31.689Z,12.37
2022-10-07T18:23:58.947Z,12.32
2022-10-07T18:26:25.667Z,12.28
2022-10-07T18:28:52.617Z,12.23
2022-10-07T18:31:19.289Z,12.17
2022-10-07T18:33:46.369Z,12.12
2022-10-07T18:36:19.206Z,12.08
2022-10-07T18:38:46.327Z,12.04
2022-10-07T18:41:15.981Z,11.99
2022-10-07T18:43:45.476Z,11.95
2022-10-07T18:46:18.356Z,11.91
2022-10-07T18:48:48.008Z,11.87
2022-10-07T18:51:15.264Z,11.83
2022-10-07T18:53:43.974Z,11.82
2022-10-07T18:56:13.411Z,11.76
2022-10-07T18:58:43.301Z,11.72
2022-10-07T19:01:12.766Z,11.68
2022-10-07T19:03:39.912Z,11.63
2022-10-07T19:06:12.475Z,11.60
2022-10-07T19:08:39.569Z,11.56
2022-10-07T19:11:08.700Z,11.52
2022-10-07T19:13:47.910Z,11.47
2022-10-07T19:16:16.922Z,11.42
2022-10-07T19:18:44.289Z,11.40
2022-10-07T19:21:13.768Z,11.36
2022-10-07T19:23:41.540Z,11.34
2022-10-07T19:26:08.679Z,11.30
2022-10-07T19:28:37.606Z,11.26
2022-10-07T19:31:19.073Z,11.20
2022-10-07T19:33:47.156Z,11.16
2022-10-07T19:36:14.925Z,11.13
2022-10-07T19:38:44.415Z,11.08
2022-10-07T19:41:16.007Z,11.05
2022-10-07T19:43:45.366Z,11.01
2022-10-07T19:46:13.407Z,10.99
2022-10-07T19:48:40.052Z,10.95
2022-10-07T19:51:09.934Z,10.91
2022-10-07T19:53:36.549Z,10.88
2022-10-07T19:56:06.418Z,10.85
2022-10-07T19:58:32.931Z,10.80
2022-10-07T20:01:10.354Z,10.75
2022-10-07T20:03:37.383Z,10.71
2022-10-07T20:06:07.629Z,10.68
2022-10-07T20:08:36.692Z,10.64
2022-10-07T20:11:04.492Z,10.62
2022-10-07T20:13:34.897Z,10.58
2022-10-07T20:16:06.716Z,10.55
2022-10-07T20:18:34.661Z,10.51
2022-10-07T20:21:03.717Z,10.48
2022-10-07T20:23:38.536Z,10.44
2022-10-07T20:26:10.567Z,10.41
2022-10-07T20:28:40.420Z,10.38
2022-10-07T20:31:12.103Z,10.35
2022-10-07T20:33:40.341Z,10.33
2022-10-07T20:36:08.424Z,10.29
2022-10-07T20:38:54.933Z,10.25
2022-10-07T20:41:41.375Z,10.23
2022-10-07T20:44:09.170Z,10.19
2022-10-07T20:46:37.990Z,10.15
2022-10-07T20:49:21.784Z,10.12
2022-10-07T20:51:59.604Z,10.10
2022-10-07T20:54:26.893Z,10.07
2022-10-07T20:56:57.947Z,10.05
2022-10-07T20:59:28.612Z,10.01
2022-10-07T21:01:55.706Z,9.98
2022-10-07T21:04:25.381Z,9.96
2022-10-07T21:06:52.278Z,9.93
2022-10-07T21:09:19.536Z,9.90
2022-10-07T21:11:48.289Z,9.87
2022-10-07T21:14:15.578Z,9.84
2022-10-07T21:16:42.359Z,9.82
2022-10-07T21:19:09.061Z,9.80
2022-10-07T21:21:35.819Z,9.77
2022-10-07T21:24:02.399Z,9.74
2022-10-07T21:26:28.953Z,9.70
2022-10-07T21:28:55.514Z,9.68
2022-10-07T21:31:23.098Z,9.66
2022-10-07T21:33:51.205Z,9.61
2022-10-07T21:36:21.220Z,9.57
2022-10-07T21:38:53.839Z,9.54
2022-10-07T21:41:22.733Z,9.52
2022-10-07T21:43:55.848Z,9.49
2022-10-07T21:46:24.567Z,9.44
2022-10-07T21:48:52.137Z,9.41
2022-10-07T21:51:18.769Z,9.38
2022-10-07T21:53:52.290Z,9.34
2022-10-07T21:56:19.615Z,9.32
2022-10-07T21:58:49.240Z,9.29
2022-10-07T22:01:17.826Z,9.26
2022-10-07T22:03:45.174Z,9.22
2022-10-07T22:06:14.703Z,9.19
2022-10-07T22:08:43.905Z,9.16
2022-10-07T22:11:15.851Z,9.13
2022-10-07T22:13:51.821Z,9.11
2022-10-07T22:16:19.453Z,9.09
2022-10-07T22:18:49.431Z,9.06
2022-10-07T22:21:21.443Z,9.03
2022-10-07T22:23:50.557Z,9.01
2022-10-07T22:26:18.799Z,8.98
2022-10-07T22:28:49.595Z,8.95
2022-10-07T22:31:16.946Z,8.91
2022-10-07T22:33:45.066Z,8.90
2022-10-07T22:36:13.427Z,8.86
2022-10-07T22:38:41.006Z,8.84
2022-10-07T22:41:10.524Z,8.81
2022-10-07T22:43:38.290Z,8.80
2022-10-07T22:46:06.499Z,8.78
2022-10-07T22:48:34.136Z,8.74
2022-10-07T22:51:06.911Z,8.71
2022-10-07T22:53:41.522Z,8.68
2022-10-07T22:56:13.856Z,8.64
2022-10-07T22:58:42.221Z,8.61
2022-10-07T23:01:14.091Z,8.57
2022-10-07T23:03:43.909Z,8.55
2022-10-07T23:06:12.386Z,8.53
2022-10-07T23:08:39.434Z,8.50
2022-10-07T23:11:07.804Z,8.47
2022-10-07T23:13:36.451Z,8.45
2022-10-07T23:16:11.370Z,8.41
2022-10-07T23:18:39.743Z,8.38
2022-10-07T23:21:13.087Z,8.37
2022-10-07T23:23:41.800Z,8.35
2022-10-07T23:26:23.252Z,8.32
2022-10-07T23:28:51.840Z,8.31
2022-10-07T23:31:20.568Z,8.28
2022-10-07T23:33:50.417Z,8.27
2022-10-07T23:36:20.031Z,8.24
2022-10-07T23:38:47.666Z,8.22
2022-10-07T23:41:17.332Z,8.22
2022-10-07T23:43:43.914Z,8.21
2022-10-07T23:46:14.296Z,8.18
2022-10-07T23:48:41.723Z,8.18
2022-10-07T23:51:11.374Z,8.19
2022-10-07T23:53:38.044Z,8.17
2022-10-07T23:56:04.875Z,8.18
2022-10-07T23:58:32.774Z,8.18
